US-0136 weather

Putz Airport
Mission, Texas, United States

Public forecast

Using degrees Fahrenheit for public forecast. Weather courtesy of forecast.io.

Closest aviation weather report (METAR) to Putz Airport

Closest report is Mc Allen Miller International Airport, 8.9 nm (16.6 km) ESE. Retrieved 2019/10/23 20:53 UTC (55 minutes ago):

KMFE 232053Z 14013KT 10SM OVC070 32/17 A2992 RMK AO2 SLP131 T03170167 56031

Closest aviation forecast (TAF) to Putz Airport

Closest forecast is Mc Allen Miller International Airport, 8.9 nm (16.6 km) ESE. Retrieved 2019/10/23 18:36 UTC (3 hours ago):

TAF KMFE 231735Z 2318/2418 13013G19KT P6SM BKN040 FM240200 12008KT P6SM BKN050 BKN150 FM240900 10004KT P6SM BKN040 FM241200 12006KT P6SM BKN050 PROB30 2412/2418 -SHRA BKN035